createdAt,value
2023-01-09T00:01:27.754Z,100275.16
2023-01-09T00:03:55.770Z,100268.88
2023-01-09T00:06:23.459Z,100267.31
2023-01-09T00:08:51.000Z,100272.38
2023-01-09T00:11:19.053Z,100264.81
2023-01-09T00:13:47.304Z,100265.84
2023-01-09T00:16:15.468Z,100260.66
2023-01-09T00:18:43.298Z,100260.66
2023-01-09T00:21:14.880Z,100258.91
2023-01-09T00:23:42.830Z,100249.19
2023-01-09T00:26:19.818Z,100243.09
2023-01-09T00:28:49.828Z,100248.22
2023-01-09T00:31:18.719Z,100234.50
2023-01-09T00:34:00.257Z,100243.63
2023-01-09T00:36:28.648Z,100244.69
2023-01-09T00:38:56.331Z,100245.75
2023-01-09T00:41:49.826Z,100256.09
2023-01-09T00:44:23.165Z,100251.84
2023-01-09T00:46:57.753Z,100252.38
2023-01-09T00:49:28.226Z,100249.69
2023-01-09T00:51:56.050Z,100243.38
2023-01-09T00:54:23.790Z,100247.03
2023-01-09T00:56:52.064Z,100239.72
2023-01-09T00:59:19.682Z,100247.03
2023-01-09T01:01:47.313Z,100244.88
2023-01-09T01:04:34.287Z,100235.50
2023-01-09T01:07:20.949Z,100237.94
2023-01-09T01:09:48.960Z,100246.91
2023-01-09T01:12:16.508Z,100238.44
2023-01-09T01:14:44.220Z,100247.41
2023-01-09T01:17:12.121Z,100233.34
2023-01-09T01:19:39.992Z,100242.28
2023-01-09T01:22:07.580Z,100226.28
2023-01-09T01:24:35.603Z,100222.56
2023-01-09T01:27:03.122Z,100222.44
2023-01-09T01:29:30.789Z,100220.22
2023-01-09T01:31:58.790Z,100215.84
2023-01-09T01:34:28.093Z,100217.38
2023-01-09T01:36:55.754Z,100221.41
2023-01-09T01:39:23.847Z,100210.69
2023-01-09T01:41:51.431Z,100218.38
2023-01-09T01:44:56.397Z,100200.38
2023-01-09T01:47:33.304Z,100202.34
2023-01-09T01:50:05.138Z,100204.22
2023-01-09T01:52:34.640Z,100200.81
2023-01-09T01:55:05.657Z,100195.88
2023-01-09T01:57:34.189Z,100195.16
2023-01-09T02:00:03.364Z,100192.06
2023-01-09T02:02:33.144Z,100192.94
2023-01-09T02:05:05.746Z,100189.13
2023-01-09T02:07:33.347Z,100186.66
2023-01-09T02:10:01.379Z,100176.84
2023-01-09T02:12:29.326Z,100172.34
2023-01-09T02:15:11.918Z,100178.28
2023-01-09T02:18:01.328Z,100174.03
2023-01-09T02:20:34.938Z,100174.78
2023-01-09T02:23:44.839Z,100168.22
2023-01-09T02:26:18.463Z,100162.41
2023-01-09T02:29:07.998Z,100150.09
2023-01-09T02:31:50.919Z,100151.09
2023-01-09T02:34:34.882Z,100148.34
2023-01-09T02:37:19.151Z,100144.00
2023-01-09T02:40:01.955Z,100145.53
2023-01-09T02:42:30.634Z,100142.37
2023-01-09T02:44:58.577Z,100142.69
2023-01-09T02:47:26.021Z,100137.47
2023-01-09T02:49:58.110Z,100144.53
2023-01-09T02:52:39.350Z,100144.09
2023-01-09T02:55:28.283Z,100140.78
2023-01-09T02:58:18.408Z,100143.75
2023-01-09T03:00:57.213Z,100133.38
2023-01-09T03:03:57.697Z,100141.09
2023-01-09T03:06:33.433Z,100141.84
2023-01-09T03:09:15.106Z,100138.84
2023-01-09T03:11:47.553Z,100134.97
2023-01-09T03:14:19.611Z,100139.88
2023-01-09T03:16:52.248Z,100130.84
2023-01-09T03:19:24.361Z,100138.50
2023-01-09T03:21:53.293Z,100139.03
2023-01-09T03:24:21.216Z,100139.72
2023-01-09T03:26:48.881Z,100127.38
2023-01-09T03:29:16.526Z,100124.41
2023-01-09T03:31:44.504Z,100118.13
2023-01-09T03:34:12.253Z,100120.97
2023-01-09T03:36:39.870Z,100129.53
2023-01-09T03:39:07.800Z,100121.00
2023-01-09T03:41:35.499Z,100112.38
2023-01-09T03:44:03.235Z,100121.94
2023-01-09T03:46:31.142Z,100112.66
2023-01-09T03:48:58.940Z,100106.00
2023-01-09T03:51:26.692Z,100104.16
2023-01-09T03:53:54.636Z,100108.94
2023-01-09T03:56:22.163Z,100114.72
2023-01-09T03:58:50.290Z,100107.84
2023-01-09T04:01:18.346Z,100116.56
2023-01-09T04:03:46.376Z,100110.47
2023-01-09T04:06:13.896Z,100105.34
2023-01-09T04:08:41.432Z,100114.53
2023-01-09T04:11:09.896Z,100112.47
2023-01-09T04:13:37.431Z,100115.25
2023-01-09T04:16:05.489Z,100112.63
2023-01-09T04:18:33.417Z,100102.41
2023-01-09T04:21:01.182Z,100106.94
2023-01-09T04:23:28.744Z,100112.38
2023-01-09T04:25:56.642Z,100109.78
2023-01-09T04:28:24.320Z,100098.78
2023-01-09T04:30:51.963Z,100106.78
2023-01-09T04:33:19.900Z,100118.75
2023-01-09T04:35:47.470Z,100114.47
2023-01-09T04:38:15.005Z,100106.94
2023-01-09T04:40:42.860Z,100102.28
2023-01-09T04:43:10.360Z,100101.22
2023-01-09T04:45:38.069Z,100100.44
2023-01-09T04:48:06.686Z,100099.28
2023-01-09T04:50:34.362Z,100095.31
2023-01-09T04:53:01.941Z,100096.25
2023-01-09T04:55:29.773Z,100099.00
2023-01-09T04:57:57.333Z,100099.19
2023-01-09T05:00:24.960Z,100098.59
2023-01-09T05:02:52.851Z,100094.06
2023-01-09T05:05:20.434Z,100089.97
2023-01-09T05:07:48.006Z,100087.59
2023-01-09T05:10:16.082Z,100087.50
2023-01-09T05:12:43.637Z,100083.47
2023-01-09T05:15:11.735Z,100086.94
2023-01-09T05:17:39.689Z,100081.69
2023-01-09T05:20:07.783Z,100079.22
2023-01-09T05:22:35.678Z,100073.50
2023-01-09T05:25:03.635Z,100073.34
2023-01-09T05:27:31.303Z,100071.34
2023-01-09T05:29:58.896Z,100068.72
2023-01-09T05:32:26.779Z,100079.84
2023-01-09T05:34:54.407Z,100068.66
2023-01-09T05:37:22.010Z,100063.31
2023-01-09T05:39:50.008Z,100061.03
2023-01-09T05:42:17.659Z,100060.91
2023-01-09T05:44:45.307Z,100059.88
2023-01-09T05:47:13.224Z,100056.53
2023-01-09T05:49:40.965Z,100048.13
2023-01-09T05:52:08.654Z,100051.34
2023-01-09T05:54:36.490Z,100044.13
2023-01-09T05:57:04.023Z,100042.31
2023-01-09T05:59:31.721Z,100045.88
2023-01-09T06:01:59.704Z,100048.56
2023-01-09T06:04:29.888Z,100045.62
2023-01-09T06:06:57.611Z,100041.16
2023-01-09T06:09:25.264Z,100050.31
2023-01-09T06:11:54.851Z,100050.09
2023-01-09T06:14:22.404Z,100039.22
2023-01-09T06:16:50.151Z,100037.56
2023-01-09T06:19:18.033Z,100030.63
2023-01-09T06:21:45.622Z,100016.75
2023-01-09T06:24:13.347Z,100021.06
2023-01-09T06:26:41.254Z,100020.41
2023-01-09T06:29:08.972Z,100012.91
2023-01-09T06:31:36.539Z,100010.81
2023-01-09T06:34:04.529Z,100020.25
2023-01-09T06:36:32.069Z,100021.34
2023-01-09T06:38:59.669Z,100026.91
2023-01-09T06:41:27.701Z,100028.56
2023-01-09T06:43:55.274Z,100035.97
2023-01-09T06:46:23.168Z,100037.91
2023-01-09T06:48:51.088Z,100041.94
2023-01-09T06:51:19.071Z,100050.19
2023-01-09T06:53:46.682Z,100050.22
2023-01-09T06:56:14.566Z,100055.34
2023-01-09T06:58:42.149Z,100056.31
2023-01-09T07:01:09.867Z,100039.53
2023-01-09T07:03:38.282Z,100041.59
2023-01-09T07:06:06.584Z,100036.87
2023-01-09T07:08:34.519Z,100036.41
2023-01-09T07:11:02.387Z,100035.72
2023-01-09T07:13:29.953Z,100037.81
2023-01-09T07:15:57.547Z,100043.53
2023-01-09T07:18:25.574Z,100038.84
2023-01-09T07:20:53.296Z,100035.09
2023-01-09T07:23:20.939Z,100031.50
2023-01-09T07:25:51.315Z,100021.94
2023-01-09T07:28:18.898Z,100016.37
2023-01-09T07:30:46.441Z,100024.44
2023-01-09T07:33:14.408Z,100022.53
2023-01-09T07:35:41.943Z,100014.78
2023-01-09T07:38:09.579Z,100017.19
2023-01-09T07:40:37.540Z,100012.94
2023-01-09T07:43:05.225Z,100014.94
2023-01-09T07:45:32.915Z,100011.31
2023-01-09T07:48:00.854Z,100022.41
2023-01-09T07:50:28.434Z,100018.59
2023-01-09T07:52:56.108Z,100013.31
2023-01-09T07:55:24.020Z,100008.88
2023-01-09T07:57:52.309Z,100002.31
2023-01-09T08:00:21.374Z,100011.59
2023-01-09T08:02:53.529Z,100010.44
2023-01-09T08:05:21.640Z,100008.38
2023-01-09T08:07:51.439Z,99994.19
2023-01-09T08:10:19.813Z,100006.34
2023-01-09T08:12:48.421Z,99999.94
2023-01-09T08:15:17.231Z,99995.00
2023-01-09T08:17:46.604Z,99985.16
2023-01-09T08:20:16.447Z,99988.50
2023-01-09T08:22:50.559Z,99987.63
2023-01-09T08:25:18.500Z,99980.38
2023-01-09T08:27:47.207Z,99974.25
2023-01-09T08:30:15.518Z,99970.34
2023-01-09T08:32:43.712Z,99970.84
2023-01-09T08:35:11.602Z,99979.84
2023-01-09T08:37:39.168Z,99966.69
2023-01-09T08:40:07.476Z,99969.75
2023-01-09T08:42:54.803Z,99966.19
2023-01-09T08:45:40.916Z,99971.37
2023-01-09T08:48:08.932Z,99962.53
2023-01-09T08:50:36.825Z,99960.94
2023-01-09T08:53:04.471Z,99955.78
2023-01-09T08:55:32.404Z,99951.09
2023-01-09T08:58:00.555Z,99949.28
2023-01-09T09:00:28.460Z,99946.41
2023-01-09T09:03:01.055Z,99946.94
2023-01-09T09:05:30.791Z,99937.59
2023-01-09T09:07:59.623Z,99945.34
2023-01-09T09:10:29.042Z,99938.63
2023-01-09T09:12:58.890Z,99940.16
2023-01-09T09:15:28.208Z,99942.75
2023-01-09T09:17:58.283Z,99933.41
2023-01-09T09:20:28.547Z,99931.06
2023-01-09T09:22:56.667Z,99931.06
2023-01-09T09:25:25.155Z,99928.72
2023-01-09T09:27:52.732Z,99933.94
2023-01-09T09:30:20.750Z,99940.72
2023-01-09T09:32:49.592Z,99931.06
2023-01-09T09:35:23.999Z,99928.47
2023-01-09T09:37:59.752Z,99919.91
2023-01-09T09:41:30.120Z,99918.34
2023-01-09T09:44:54.377Z,99907.94
2023-01-09T09:47:53.697Z,99918.59
2023-01-09T09:51:00.061Z,99914.16
2023-01-09T09:53:36.688Z,99916.28
2023-01-09T09:56:05.733Z,99917.31
2023-01-09T09:58:39.144Z,99917.72
2023-01-09T10:01:09.429Z,99917.81
2023-01-09T10:03:46.196Z,99910.78
2023-01-09T10:06:48.651Z,99906.38
2023-01-09T10:09:37.929Z,99905.81
2023-01-09T10:12:14.544Z,99898.91
2023-01-09T10:14:42.522Z,99893.94
2023-01-09T10:17:28.353Z,99883.59
2023-01-09T10:19:56.214Z,99875.81
2023-01-09T10:22:32.463Z,99877.94
2023-01-09T10:25:18.462Z,99879.56
2023-01-09T10:28:04.603Z,99877.63
2023-01-09T10:30:35.708Z,99878.78
2023-01-09T10:33:30.544Z,99873.06
2023-01-09T10:36:25.483Z,99874.78
2023-01-09T10:38:57.997Z,99869.22
2023-01-09T10:41:34.383Z,99853.16
2023-01-09T10:44:21.286Z,99851.66
2023-01-09T10:46:55.156Z,99849.37
2023-01-09T10:49:24.200Z,99851.47
2023-01-09T10:52:15.632Z,99846.53
2023-01-09T10:55:25.499Z,99835.81
2023-01-09T10:57:58.725Z,99841.28
2023-01-09T11:00:26.748Z,99836.09
2023-01-09T11:02:55.181Z,99831.44
2023-01-09T11:05:26.746Z,99826.97
2023-01-09T11:08:13.846Z,99826.88
2023-01-09T11:10:46.991Z,99822.97
2023-01-09T11:13:23.578Z,99816.13
2023-01-09T11:16:05.908Z,99821.53
2023-01-09T11:18:37.539Z,99810.00
2023-01-09T11:21:34.160Z,99803.37
2023-01-09T11:24:22.094Z,99804.56
2023-01-09T11:26:54.637Z,99801.41
2023-01-09T11:29:26.036Z,99804.75
2023-01-09T11:31:59.110Z,99806.47
2023-01-09T11:34:36.134Z,99792.16
2023-01-09T11:37:08.946Z,99795.37
2023-01-09T11:39:41.797Z,99795.78
2023-01-09T11:42:45.594Z,99792.16
2023-01-09T11:45:21.695Z,99789.66
2023-01-09T11:47:49.271Z,99782.75
2023-01-09T11:50:22.933Z,99782.97
2023-01-09T11:53:13.261Z,99781.19
2023-01-09T11:55:43.243Z,99773.53
2023-01-09T11:58:16.739Z,99772.53
2023-01-09T12:01:05.890Z,99765.53
2023-01-09T12:04:03.246Z,99768.31
2023-01-09T12:07:00.594Z,99767.75
2023-01-09T12:09:56.851Z,99759.06
2023-01-09T12:12:36.092Z,99765.37
2023-01-09T13:10:03.309Z,99715.75
2023-01-09T13:12:36.958Z,99721.50
2023-01-09T13:15:15.054Z,99718.56
2023-01-09T13:17:50.022Z,99726.25
2023-01-09T13:20:36.228Z,99715.25
2023-01-09T13:23:06.621Z,99709.28
2023-01-09T13:25:57.790Z,99706.81
2023-01-09T13:28:32.233Z,99704.69
2023-01-09T13:31:24.913Z,99704.97
2023-01-09T13:33:59.251Z,99698.34
2023-01-09T13:36:38.060Z,99699.69
2023-01-09T13:39:06.832Z,99700.59
2023-01-09T13:42:05.919Z,99695.78
2023-01-09T13:44:34.680Z,99698.91
2023-01-09T13:47:03.487Z,99708.31
2023-01-09T13:49:40.388Z,99714.41
2023-01-09T13:52:36.843Z,99713.16
2023-01-09T13:55:16.550Z,99719.28
2023-01-09T13:58:03.163Z,99716.81
2023-01-09T14:00:30.885Z,99718.44
2023-01-09T14:03:08.083Z,99722.38
2023-01-09T14:05:35.694Z,99725.97
2023-01-09T14:08:06.967Z,99727.03
2023-01-09T14:10:43.318Z,99733.81
2023-01-09T14:13:25.208Z,99729.00
2023-01-09T14:16:01.073Z,99731.00
2023-01-09T14:18:32.882Z,99726.00
2023-01-09T14:23:51.600Z,99725.00
2023-01-09T14:26:22.572Z,99714.59
2023-01-09T14:28:50.698Z,99715.09
2023-01-09T14:31:36.517Z,99707.78
2023-01-09T14:34:31.884Z,99710.91
2023-01-09T14:37:02.705Z,99703.22
2023-01-09T14:39:32.533Z,99700.94
2023-01-09T14:42:09.153Z,99698.59
2023-01-09T14:44:42.930Z,99703.63
2023-01-09T14:47:36.911Z,99698.28
2023-01-09T14:50:32.766Z,99699.75
2023-01-09T14:53:13.446Z,99693.59
2023-01-09T14:55:52.404Z,99685.16
2023-01-09T14:58:25.861Z,99681.37
2023-01-09T15:01:00.339Z,99684.16
2023-01-09T15:03:49.584Z,99678.88
2023-01-09T15:06:23.293Z,99677.84
2023-01-09T15:08:57.330Z,99682.69
2023-01-09T15:11:26.502Z,99688.22
2023-01-09T15:13:57.238Z,99678.63
2023-01-09T15:16:26.487Z,99678.41
2023-01-09T15:19:02.136Z,99675.56
2023-01-09T15:21:31.753Z,99682.56
2023-01-09T15:24:34.368Z,99680.75
2023-01-09T15:27:10.364Z,99684.06
2023-01-09T15:29:37.989Z,99677.34
2023-01-09T15:32:24.051Z,99678.38
2023-01-09T15:34:53.509Z,99675.91
2023-01-09T15:37:24.304Z,99679.50
2023-01-09T15:39:52.679Z,99684.03
2023-01-09T15:42:44.930Z,99670.66
2023-01-09T15:45:37.202Z,99673.47
2023-01-09T15:48:25.880Z,99676.56
2023-01-09T15:51:04.343Z,99684.22
2023-01-09T15:53:32.209Z,99671.38
2023-01-09T15:56:12.094Z,99678.06
2023-01-09T15:58:47.084Z,99677.00
2023-01-09T16:01:35.325Z,99671.81
2023-01-09T16:04:17.366Z,99668.25
2023-01-09T16:06:50.456Z,99656.94
2023-01-09T16:09:23.945Z,99659.00
2023-01-09T16:11:55.437Z,99657.37
2023-01-09T16:14:47.660Z,99651.53
2023-01-09T16:17:17.830Z,99646.56
2023-01-09T16:19:48.619Z,99646.91
2023-01-09T16:22:27.155Z,99643.56
2023-01-09T16:24:58.845Z,99637.63
2023-01-09T16:27:30.362Z,99637.28
2023-01-09T16:29:59.630Z,99643.00
2023-01-09T16:32:34.156Z,99629.69
2023-01-09T16:35:07.799Z,99639.00
2023-01-09T16:37:36.120Z,99640.22
2023-01-09T16:40:24.298Z,99637.88
2023-01-09T16:43:07.118Z,99631.44
2023-01-09T16:45:40.242Z,99630.47
2023-01-09T16:48:22.458Z,99631.16
2023-01-09T16:50:50.620Z,99629.66
2023-01-09T16:53:25.708Z,99623.94
2023-01-09T16:55:54.561Z,99617.84
2023-01-09T16:58:28.785Z,99614.81
2023-01-09T17:00:57.708Z,99618.91
2023-01-09T17:03:26.091Z,99618.59
2023-01-09T17:05:56.367Z,99613.84
2023-01-09T17:08:29.420Z,99616.16
2023-01-09T17:10:57.723Z,99613.13
2023-01-09T17:13:26.254Z,99615.03
2023-01-09T17:15:55.705Z,99613.00
2023-01-09T17:18:25.521Z,99607.41
2023-01-09T17:20:56.186Z,99603.50
2023-01-09T17:23:25.911Z,99598.59
2023-01-09T17:26:16.227Z,99600.19
2023-01-09T17:28:48.291Z,99598.94
2023-01-09T17:31:16.432Z,99597.13
2023-01-09T17:33:44.100Z,99596.66
2023-01-09T17:36:37.813Z,99597.22
2023-01-09T17:39:05.789Z,99596.19
2023-01-09T17:41:33.674Z,99595.19
2023-01-09T17:44:01.375Z,99586.09
2023-01-09T17:46:32.451Z,99587.41
2023-01-09T17:49:01.056Z,99591.03
2023-01-09T17:51:29.780Z,99582.72
2023-01-09T17:53:57.963Z,99585.06
2023-01-09T17:56:28.512Z,99586.62
2023-01-09T17:58:57.400Z,99583.22
2023-01-09T18:01:25.307Z,99584.81
2023-01-09T18:03:53.364Z,99577.00
2023-01-09T18:06:24.976Z,99571.03
2023-01-09T18:08:53.195Z,99573.63
2023-01-09T18:11:22.017Z,99568.69
2023-01-09T18:13:52.040Z,99578.81
2023-01-09T18:16:25.565Z,99576.19
2023-01-09T18:18:54.811Z,99582.19
2023-01-09T18:21:25.350Z,99565.81
2023-01-09T18:23:53.291Z,99564.50
2023-01-09T18:26:22.491Z,99551.28
2023-01-09T18:28:54.834Z,99560.59
2023-01-09T18:31:23.908Z,99558.78
2023-01-09T18:33:53.477Z,99558.03
2023-01-09T18:36:23.815Z,99558.75
2023-01-09T18:38:53.533Z,99554.88
2023-01-09T18:41:22.519Z,99550.16
2023-01-09T18:43:55.820Z,99552.50
2023-01-09T18:46:24.719Z,99551.16
2023-01-09T18:48:53.496Z,99556.59
2023-01-09T18:51:22.506Z,99544.84
2023-01-09T18:53:51.719Z,99552.41
2023-01-09T18:56:20.140Z,99542.59
2023-01-09T18:58:48.804Z,99543.13
2023-01-09T19:01:17.086Z,99538.44
2023-01-09T19:03:46.130Z,99532.72
2023-01-09T19:06:14.021Z,99540.50
2023-01-09T19:08:42.137Z,99542.34
2023-01-09T19:11:10.035Z,99537.94
2023-01-09T19:13:38.012Z,99541.53
2023-01-09T19:16:08.079Z,99541.28
2023-01-09T19:18:39.341Z,99537.88
2023-01-09T19:21:19.519Z,99536.53
2023-01-09T19:23:48.391Z,99538.25
2023-01-09T19:26:20.330Z,99524.19
2023-01-09T19:28:48.305Z,99527.84
2023-01-09T19:31:17.687Z,99520.84
2023-01-09T19:33:45.562Z,99526.56
2023-01-09T19:36:13.474Z,99521.13
2023-01-09T19:38:41.622Z,99531.00
2023-01-09T19:41:14.146Z,99529.75
2023-01-09T19:43:42.167Z,99527.38
2023-01-09T19:46:12.561Z,99534.84
2023-01-09T19:48:42.555Z,99532.53
2023-01-09T19:51:12.795Z,99532.25
2023-01-09T19:53:40.414Z,99530.22
2023-01-09T19:56:14.286Z,99530.50
2023-01-09T19:58:47.443Z,99526.16
2023-01-09T20:01:18.543Z,99523.16
2023-01-09T20:03:48.611Z,99528.25
2023-01-09T20:06:19.005Z,99522.19
2023-01-09T20:08:48.788Z,99520.19
2023-01-09T20:11:17.146Z,99519.44
2023-01-09T20:13:45.160Z,99525.41
2023-01-09T20:16:16.310Z,99521.81
2023-01-09T20:18:43.984Z,99523.13
2023-01-09T20:21:18.554Z,99525.19
2023-01-09T20:23:46.546Z,99521.03
2023-01-09T20:26:14.886Z,99519.53
2023-01-09T20:28:45.979Z,99513.75
2023-01-09T20:31:17.100Z,99513.47
2023-01-09T20:33:48.953Z,99510.91
2023-01-09T20:36:17.347Z,99518.47
2023-01-09T20:38:45.264Z,99510.47
2023-01-09T20:41:22.810Z,99510.47
2023-01-09T20:44:05.802Z,99503.72
2023-01-09T20:46:37.885Z,99501.47
2023-01-09T20:49:07.939Z,99509.12
2023-01-09T20:51:37.326Z,99510.19
2023-01-09T20:54:05.064Z,99498.03
2023-01-09T20:56:33.090Z,99505.81
2023-01-09T20:59:01.258Z,99507.88
2023-01-09T21:01:29.236Z,99502.41
2023-01-09T21:03:57.951Z,99493.84
2023-01-09T21:06:27.391Z,99487.09
2023-01-09T21:08:55.658Z,99495.97
2023-01-09T21:11:23.884Z,99496.44
2023-01-09T21:13:52.150Z,99490.50
2023-01-09T21:16:24.341Z,99492.81
2023-01-09T21:18:53.974Z,99487.62
2023-01-09T21:21:25.113Z,99488.13
2023-01-09T21:23:58.053Z,99494.62
2023-01-09T21:26:28.997Z,99485.03
2023-01-09T21:28:58.141Z,99488.75
2023-01-09T21:31:34.826Z,99491.78
2023-01-09T21:34:08.137Z,99490.78
2023-01-09T21:36:36.248Z,99486.16
2023-01-09T21:39:07.935Z,99479.44
2023-01-09T21:41:55.041Z,99479.41
2023-01-09T21:44:41.503Z,99480.16
2023-01-09T21:47:09.569Z,99477.91
2023-01-09T21:49:42.952Z,99473.47
2023-01-09T21:52:15.522Z,99474.75
2023-01-09T21:54:44.282Z,99479.50
2023-01-09T21:57:13.014Z,99479.22
2023-01-09T21:59:41.371Z,99479.25
2023-01-09T22:02:13.463Z,99470.44
2023-01-09T22:04:43.057Z,99467.03
2023-01-09T22:07:10.665Z,99468.09
2023-01-09T22:09:38.213Z,99462.09
2023-01-09T22:12:06.417Z,99458.22
2023-01-09T22:14:34.020Z,99461.34
2023-01-09T22:17:01.650Z,99451.75
2023-01-09T22:19:29.647Z,99448.34
2023-01-09T22:21:57.356Z,99449.12
2023-01-09T22:24:25.075Z,99448.81
2023-01-09T22:26:52.904Z,99449.84
2023-01-09T22:29:21.885Z,99441.59
2023-01-09T22:31:49.515Z,99444.69
2023-01-09T22:34:18.761Z,99432.28
2023-01-09T22:36:47.190Z,99428.66
2023-01-09T22:39:18.055Z,99427.84
2023-01-09T22:41:50.521Z,99434.84
2023-01-09T22:44:19.132Z,99425.25
2023-01-09T22:46:47.130Z,99427.84
2023-01-09T22:49:14.769Z,99428.94
2023-01-09T22:51:42.413Z,99429.69
2023-01-09T22:54:10.314Z,99425.00
2023-01-09T22:56:38.036Z,99423.97
2023-01-09T22:59:06.006Z,99425.56
2023-01-09T23:01:33.926Z,99424.50
2023-01-09T23:04:03.677Z,99433.84
2023-01-09T23:06:31.255Z,99425.06
2023-01-09T23:08:59.198Z,99434.09
2023-01-09T23:11:49.263Z,99428.66
2023-01-09T23:14:17.817Z,99427.31
2023-01-09T23:16:45.610Z,99420.28
2023-01-09T23:19:16.725Z,99421.09
2023-01-09T23:21:44.878Z,99414.59
2023-01-09T23:24:14.630Z,99416.72
2023-01-09T23:26:43.906Z,99422.94
2023-01-09T23:29:12.757Z,99406.81
2023-01-09T23:31:40.526Z,99409.97
2023-01-09T23:34:08.453Z,99419.31
2023-01-09T23:36:36.426Z,99418.28
2023-01-09T23:39:08.849Z,99416.47
2023-01-09T23:41:56.335Z,99416.19
2023-01-09T23:44:24.107Z,99411.78
2023-01-09T23:46:52.275Z,99415.66
2023-01-09T23:49:20.155Z,99418.03
2023-01-09T23:51:47.862Z,99415.72
2023-01-09T23:54:16.825Z,99409.53
2023-01-09T23:56:44.858Z,99413.13
2023-01-09T23:59:14.614Z,99407.69
